Time;durP1;ratioP1;P1;durP2;ratioP2;P2;SDS_P1;SDS_P2;PMS_P1;PMS_P2;Temp;Humidity;BMP_temperature;BMP_pressure;BME280_temperature;BME280_humidity;BME280_pressure;Samples;Min_cycle;Max_cycle;Signal;HPM_P1;HPM_P2
2021/09/23 00:00:27;;;;;;;12.70;9.03;;;;;;;10.89;83.57;100205.59;5087503;28;20213;-80
2021/09/23 00:03:13;;;;;;;10.60;9.30;;;;;;;10.83;83.57;100210.94;5087196;28;20239;-80
2021/09/23 00:05:41;;;;;;;12.30;8.93;;;;;;;10.84;83.60;100210.75;5092950;22;20282;-80
2021/09/23 00:08:13;;;;;;;9.67;8.67;;;;;;;10.80;83.00;100187.25;5087615;28;20247;-79
2021/09/23 00:10:41;;;;;;;11.80;8.67;;;;;;;10.79;83.16;100196.31;5087380;28;20236;-79
2021/09/23 00:13:10;;;;;;;11.03;8.43;;;;;;;10.84;83.31;100201.88;5086914;28;20209;-80
2021/09/23 00:15:46;;;;;;;11.50;8.63;;;;;;;10.96;82.76;100198.34;5088591;28;20245;-79
2021/09/23 00:18:19;;;;;;;11.13;9.00;;;;;;;10.90;82.51;100198.38;5093913;22;20247;-80
2021/09/23 00:20:52;;;;;;;12.83;8.93;;;;;;;11.00;82.55;100204.16;5058458;23;20258;-79
2021/09/23 00:23:22;;;;;;;12.13;8.73;;;;;;;11.01;82.63;100192.41;5075440;22;22201;-79
2021/09/23 00:25:51;;;;;;;13.67;8.80;;;;;;;11.01;82.27;100195.06;5092052;22;20229;-80
2021/09/23 00:28:23;;;;;;;11.43;9.13;;;;;;;11.01;82.03;100179.78;5053894;28;20627;-79
2021/09/23 00:30:59;;;;;;;10.63;8.27;;;;;;;10.95;81.94;100179.81;5064498;23;20236;-79
2021/09/23 00:33:26;;;;;;;11.87;8.03;;;;;;;10.90;82.45;100182.28;5048930;28;20521;-79
2021/09/23 00:35:57;;;;;;;10.53;8.00;;;;;;;11.19;81.77;100194.41;5065360;28;20295;-80
2021/09/23 00:38:26;;;;;;;11.03;8.00;;;;;;;11.13;81.04;100195.25;5065606;28;20221;-80
2021/09/23 00:40:59;;;;;;;11.43;8.43;;;;;;;11.06;81.38;100173.00;5048028;28;20233;-80
2021/09/23 00:43:26;;;;;;;10.80;8.00;;;;;;;11.06;81.27;100181.03;5047830;28;20213;-79
2021/09/23 00:45:55;;;;;;;11.47;8.50;;;;;;;11.09;81.35;100180.63;5048274;28;20236;-80
2021/09/23 00:48:37;;;;;;;8.70;7.63;;;;;;;11.18;81.21;100190.09;5047736;28;20245;-80
2021/09/23 00:51:05;;;;;;;10.03;7.23;;;;;;;11.12;81.02;100170.28;5066699;28;20213;-79
2021/09/23 00:53:35;;;;;;;9.47;7.37;;;;;;;11.18;81.10;100179.34;5034076;28;20277;-80
2021/09/23 00:56:30;;;;;;;9.63;7.23;;;;;;;11.27;80.97;100175.41;5040115;28;20221;-79
2021/09/23 00:59:04;;;;;;;8.50;7.70;;;;;;;11.32;80.69;100184.47;5066329;28;20233;-79
2021/09/23 01:01:47;;;;;;;9.80;7.47;;;;;;;11.32;81.01;100178.28;5034792;28;20229;-79
2021/09/23 01:04:20;;;;;;;9.87;7.90;;;;;;;11.35;80.78;100169.81;5065172;28;20225;-79
2021/09/23 01:06:52;;;;;;;9.33;7.67;;;;;;;11.39;80.84;100169.16;5065131;28;20221;-80
2021/09/23 01:09:23;;;;;;;9.60;7.63;;;;;;;11.54;80.01;100181.50;5064281;28;20225;-80
2021/09/23 01:11:52;;;;;;;10.07;7.43;;;;;;;11.61;79.82;100174.25;5064084;23;20236;-79
2021/09/23 01:14:22;;;;;;;9.63;7.50;;;;;;;11.60;79.50;100177.97;5042934;23;20303;-79
2021/09/23 01:16:54;;;;;;;11.37;8.23;;;;;;;11.62;80.22;100176.72;5036947;23;20222;-80
2021/09/23 01:19:38;;;;;;;10.10;7.53;;;;;;;11.69;79.39;100166.78;5045177;28;20241;-80
2021/09/23 01:22:15;;;;;;;9.27;7.70;;;;;;;11.67;79.68;100168.84;5054841;23;20253;-79
2021/09/23 01:25:17;;;;;;;9.57;6.83;;;;;;;11.63;79.85;100156.06;5053633;28;20232;-80
2021/09/23 01:27:46;;;;;;;8.87;7.90;;;;;;;11.65;79.94;100156.69;5063731;28;20587;-79
2021/09/23 01:30:18;;;;;;;9.77;7.70;;;;;;;11.58;80.43;100145.16;5028823;28;20217;-80
2021/09/23 01:32:50;;;;;;;9.23;7.23;;;;;;;11.56;80.17;100148.06;5083659;23;20284;-80
2021/09/23 01:35:21;;;;;;;10.90;7.37;;;;;;;11.35;80.40;100127.72;5054229;28;20262;-79
2021/09/23 01:38:00;;;;;;;8.93;7.10;;;;;;;11.43;80.12;100148.13;5086095;28;20734;-80
2021/09/23 01:40:38;;;;;;;9.10;7.23;;;;;;;11.35;80.34;100137.63;5087951;28;20224;-79
2021/09/23 01:43:07;;;;;;;8.93;7.63;;;;;;;11.31;80.28;100134.53;5078985;22;20193;-79
2021/09/23 01:45:34;;;;;;;9.13;7.20;;;;;;;11.26;80.50;100134.34;5012530;28;20234;-79
2021/09/23 01:48:10;;;;;;;8.40;7.17;;;;;;;11.24;80.69;100136.44;5031823;28;20237;-79
2021/09/23 01:50:48;;;;;;;10.97;7.80;;;;;;;11.22;80.34;100133.13;5053958;23;20249;-79
2021/09/23 01:53:37;;;;;;;10.63;6.93;;;;;;;11.24;80.44;100136.44;5054846;28;20229;-80
2021/09/23 01:56:10;;;;;;;11.10;7.83;;;;;;;11.24;80.58;100140.97;5048898;28;20237;-80
2021/09/23 01:58:41;;;;;;;9.17;7.40;;;;;;;11.19;80.35;100130.06;5052630;22;20287;-80
2021/09/23 02:01:16;;;;;;;9.33;7.50;;;;;;;11.25;80.59;100146.09;5027170;23;20225;-79
2021/09/23 02:03:46;;;;;;;10.80;7.60;;;;;;;11.29;80.55;100150.00;5070409;28;21207;-79
2021/09/23 02:06:27;;;;;;;8.50;7.13;;;;;;;11.30;80.53;100146.28;5071905;28;20224;-79
2021/09/23 02:08:54;;;;;;;9.30;7.53;;;;;;;11.34;80.28;100141.31;5077504;22;20247;-80
2021/09/23 02:11:29;;;;;;;8.70;7.17;;;;;;;11.33;80.59;100127.13;5032455;23;20231;-79
2021/09/23 02:14:12;;;;;;;11.27;6.90;;;;;;;11.37;80.27;100135.56;4997600;28;20236;-78
2021/09/23 02:16:58;;;;;;;10.07;7.17;;;;;;;11.36;80.47;100139.25;5031037;28;20222;-79
2021/09/23 02:19:49;;;;;;;10.10;7.40;;;;;;;11.32;80.50;100132.69;5045200;23;20227;-79
2021/09/23 02:22:35;;;;;;;8.10;7.30;;;;;;;11.35;80.13;100133.06;5015417;28;20202;-79
2021/09/23 02:25:19;;;;;;;10.80;7.60;;;;;;;11.37;80.71;100124.81;5040664;23;20248;-79
2021/09/23 02:28:00;;;;;;;9.53;7.17;;;;;;;11.40;80.58;100127.06;5051542;23;20230;-79
2021/09/23 02:30:43;;;;;;;10.23;7.37;;;;;;;11.39;80.93;100120.06;5025455;22;20223;-79
2021/09/23 02:33:13;;;;;;;9.07;7.33;;;;;;;11.39;80.86;100125.41;5073241;28;20301;-80
2021/09/23 02:36:02;;;;;;;10.97;7.40;;;;;;;11.38;80.77;100121.09;5074668;23;20229;-79
2021/09/23 02:38:43;;;;;;;8.30;6.33;;;;;;;11.37;80.83;100116.78;5046795;23;20235;-79
2021/09/23 02:41:14;;;;;;;10.27;7.73;;;;;;;11.36;81.32;100109.75;5030486;28;20334;-79
2021/09/23 02:43:42;;;;;;;10.10;7.00;;;;;;;11.38;81.27;100113.06;5014329;28;20309;-79
2021/09/23 02:46:10;;;;;;;9.23;6.90;;;;;;;11.35;81.14;100100.06;5055667;23;20499;-79
2021/09/23 02:48:55;;;;;;;7.23;6.50;;;;;;;11.33;81.21;100102.97;5071507;28;20534;-79
2021/09/23 02:51:28;;;;;;;9.20;7.13;;;;;;;11.38;81.50;100118.44;5053879;28;20281;-79
2021/09/23 02:54:06;;;;;;;8.57;7.47;;;;;;;11.38;81.49;100118.44;5070968;28;20216;-79
2021/09/23 02:56:39;;;;;;;10.93;7.60;;;;;;;11.36;81.38;100104.38;5083392;23;20232;-79
2021/09/23 02:59:13;;;;;;;8.60;6.93;;;;;;;11.25;81.61;100094.31;5035061;28;20245;-79
2021/09/23 03:01:51;;;;;;;10.33;7.13;;;;;;;11.24;81.46;100095.38;5065056;22;20233;-80
2021/09/23 03:04:22;;;;;;;8.93;7.13;;;;;;;11.18;81.63;100098.91;5022664;28;20236;-79
2021/09/23 03:07:40;;;;;;;8.33;7.00;;;;;;;11.12;81.89;100097.06;5117214;22;20226;-79
2021/09/23 03:10:12;;;;;;;8.50;6.33;;;;;;;11.14;81.97;100103.88;5013025;23;20237;-79
2021/09/23 03:12:45;;;;;;;9.90;6.73;;;;;;;11.01;81.86;100095.88;5016557;28;20230;-79
2021/09/23 03:15:17;;;;;;;9.67;7.30;;;;;;;10.99;82.17;100101.44;5045840;28;20231;-80
2021/09/23 03:17:49;;;;;;;8.40;7.50;;;;;;;10.92;82.46;100103.28;5030112;28;20223;-79
2021/09/23 03:20:22;;;;;;;8.90;6.77;;;;;;;10.83;82.45;100085.78;5044764;28;20249;-80
2021/09/23 03:22:57;;;;;;;9.50;7.70;;;;;;;10.81;82.31;100093.25;5059260;23;20237;-79
2021/09/23 03:25:29;;;;;;;8.70;7.80;;;;;;;10.70;82.21;100077.78;4983465;23;20227;-79
2021/09/23 03:28:16;;;;;;;9.30;8.40;;;;;;;10.69;82.61;100086.84;5023563;23;21633;-80
2021/09/23 03:30:53;;;;;;;11.47;10.30;;;;;;;10.66;82.79;100081.91;5087365;28;20659;-80
2021/09/23 03:33:22;;;;;;;9.70;8.57;;;;;;;10.65;82.77;100079.44;5084433;28;20221;-80
2021/09/23 03:35:51;;;;;;;8.37;7.57;;;;;;;10.64;82.62;100075.94;5063875;23;20232;-79
2021/09/23 03:38:22;;;;;;;10.63;7.37;;;;;;;10.58;82.67;100072.25;5046365;28;20230;-80
2021/09/23 03:41:16;;;;;;;8.97;6.83;;;;;;;10.58;82.58;100069.56;5049055;28;20234;-80
2021/09/23 03:43:46;;;;;;;7.77;6.97;;;;;;;10.51;82.61;100075.97;5062808;23;20279;-80
2021/09/23 03:46:38;;;;;;;10.33;7.80;;;;;;;10.59;82.04;100081.13;5042785;28;20451;-78
2021/09/23 03:49:07;;;;;;;10.20;7.20;;;;;;;10.51;82.93;100075.97;5074866;23;20221;-77
2021/09/23 03:51:38;;;;;;;8.40;7.03;;;;;;;10.46;82.70;100076.59;5029050;28;20226;-77
2021/09/23 03:54:18;;;;;;;10.53;6.97;;;;;;;10.47;82.88;100074.72;5029328;28;20218;-77
2021/09/23 03:56:59;;;;;;;9.40;7.03;;;;;;;10.50;83.09;100076.97;5012933;28;20230;-79
2021/09/23 03:59:41;;;;;;;9.13;7.47;;;;;;;10.46;83.26;100075.75;5028707;28;20285;-78
2021/09/23 04:02:18;;;;;;;10.87;7.10;;;;;;;10.45;83.03;100071.47;5028904;28;20223;-77
2021/09/23 04:04:54;;;;;;;9.20;6.73;;;;;;;10.42;83.12;100069.16;5029931;28;20227;-77
2021/09/23 04:07:36;;;;;;;13.73;7.23;;;;;;;10.39;83.18;100067.75;5061040;23;20232;-78
2021/09/23 04:10:23;;;;;;;10.90;7.13;;;;;;;10.40;82.95;100074.75;5036239;28;20308;-77
2021/09/23 04:12:58;;;;;;;8.13;6.73;;;;;;;10.32;83.05;100066.91;5068842;28;20201;-77
2021/09/23 04:15:27;;;;;;;10.30;7.00;;;;;;;10.32;83.15;100069.59;5068767;28;20590;-77
2021/09/23 04:18:00;;;;;;;8.37;6.30;;;;;;;10.25;83.13;100065.28;5050559;28;20221;-77
2021/09/23 04:20:33;;;;;;;8.97;6.43;;;;;;;10.26;83.20;100075.78;5051190;28;20226;-78
2021/09/23 04:23:10;;;;;;;10.73;6.47;;;;;;;10.25;83.29;100079.50;5068348;28;20247;-78
2021/09/23 04:25:37;;;;;;;8.60;6.90;;;;;;;10.15;82.96;100071.03;5075596;23;20234;-78
2021/09/23 04:28:12;;;;;;;9.27;6.43;;;;;;;10.05;82.94;100063.41;5047574;22;20975;-77
2021/09/23 04:30:39;;;;;;;8.37;7.00;;;;;;;10.06;83.11;100081.13;5001906;28;20226;-78
2021/09/23 04:33:08;;;;;;;9.73;6.60;;;;;;;9.99;83.32;100082.94;5036468;23;20226;-78
2021/09/23 04:35:38;;;;;;;10.00;7.83;;;;;;;9.97;83.39;100081.50;5051665;23;20269;-77
2021/09/23 04:38:09;;;;;;;9.97;7.10;;;;;;;9.99;83.58;100092.81;5059097;28;20177;-77
2021/09/23 04:40:38;;;;;;;7.83;6.80;;;;;;;9.95;83.35;100084.38;5058338;28;20229;-77
2021/09/23 04:43:06;;;;;;;8.67;6.70;;;;;;;9.97;83.68;100085.03;5061154;23;20230;-77
2021/09/23 04:45:35;;;;;;;10.60;7.20;;;;;;;9.92;83.61;100070.59;5056803;28;20196;-77
2021/09/23 04:50:49;;;;;;;9.47;7.20;;;;;;;9.98;83.81;100077.81;5084607;23;20291;-78
2021/09/23 04:53:19;;;;;;;9.30;7.20;;;;;;;9.95;83.44;100075.53;5086364;23;20297;-78
2021/09/23 04:55:52;;;;;;;7.77;6.43;;;;;;;9.92;83.91;100065.25;5040601;28;20193;-78
2021/09/23 04:58:29;;;;;;;9.20;6.60;;;;;;;9.97;83.76;100077.00;4969889;29;20193;-78
2021/09/23 05:01:23;;;;;;;7.77;6.53;;;;;;;10.03;83.71;100068.13;4986289;28;20204;-78
2021/09/23 05:03:56;;;;;;;10.20;6.53;;;;;;;10.08;83.67;100075.53;4975489;28;20229;-78
2021/09/23 05:06:32;;;;;;;11.30;6.93;;;;;;;10.15;83.55;100062.97;4989713;28;20218;-78
2021/09/23 05:09:01;;;;;;;7.77;6.13;;;;;;;10.26;83.05;100061.59;5042500;23;20229;-78
2021/09/23 05:11:49;;;;;;;9.53;7.33;;;;;;;10.30;82.89;100058.28;5059289;28;20218;-77
2021/09/23 05:14:23;;;;;;;8.47;7.07;;;;;;;10.40;82.81;100057.84;5072894;28;20221;-78
2021/09/23 05:16:50;;;;;;;10.17;6.67;;;;;;;10.48;82.91;100049.59;5072354;28;20221;-78
2021/09/23 05:19:50;;;;;;;8.73;6.50;;;;;;;10.49;81.94;100052.06;5072533;28;20241;-78
2021/09/23 05:22:27;;;;;;;10.53;6.60;;;;;;;10.56;82.30;100041.34;4991673;28;20223;-78
2021/09/23 05:25:09;;;;;;;7.90;6.37;;;;;;;10.54;82.10;100043.41;4979489;28;20180;-79
2021/09/23 05:27:40;;;;;;;9.00;6.40;;;;;;;10.70;81.37;100051.00;4977354;28;20192;-78
2021/09/23 05:30:29;;;;;;;11.83;6.30;;;;;;;10.82;81.53;100045.81;4994874;28;20224;-78
2021/09/23 05:33:16;;;;;;;8.83;6.10;;;;;;;10.89;81.49;100041.25;5006642;22;20174;-78
2021/09/23 05:35:50;;;;;;;9.67;5.77;;;;;;;11.12;81.13;100059.50;5056568;28;20236;-78
2021/09/23 05:38:18;;;;;;;8.30;6.37;;;;;;;11.23;80.70;100056.16;5041539;23;20237;-78
2021/09/23 05:40:47;;;;;;;9.33;6.17;;;;;;;11.38;80.58;100054.84;5053250;28;20194;-78
2021/09/23 05:43:34;;;;;;;9.00;5.63;;;;;;;11.63;79.89;100062.13;5052250;28;20226;-78
2021/09/23 05:46:07;;;;;;;8.67;5.60;;;;;;;11.77;79.68;100067.25;5051483;28;20206;-78
2021/09/23 05:48:36;;;;;;;9.87;5.93;;;;;;;11.99;78.93;100072.28;5052686;28;20221;-78
2021/09/23 05:51:06;;;;;;;8.40;6.07;;;;;;;12.22;78.95;100072.50;5051288;28;20214;-78
2021/09/23 05:53:34;;;;;;;8.33;5.80;;;;;;;12.33;78.48;100061.03;5050421;28;20202;-78
2021/09/23 05:56:06;;;;;;;8.67;5.53;;;;;;;12.60;77.30;100058.91;5080556;22;20221;-78
2021/09/23 05:58:50;;;;;;;6.83;5.73;;;;;;;12.74;76.68;100058.53;5032126;28;20209;-78
2021/09/23 06:01:17;;;;;;;7.03;5.77;;;;;;;12.90;76.47;100056.31;5031885;28;20233;-78
2021/09/23 06:03:54;;;;;;;11.13;6.53;;;;;;;13.04;75.67;100060.50;5017073;28;20232;-78
2021/09/23 06:06:21;;;;;;;7.43;5.47;;;;;;;13.14;76.04;100058.13;5060993;22;20247;-78
2021/09/23 06:08:59;;;;;;;6.97;5.93;;;;;;;13.13;75.92;100048.41;5065507;22;20213;-77
2021/09/23 06:11:30;;;;;;;10.73;6.50;;;;;;;13.27;75.86;100057.97;5041817;23;20226;-78
2021/09/23 06:13:58;;;;;;;9.60;6.57;;;;;;;13.30;75.10;100044.03;5002479;28;20297;-78
2021/09/23 06:16:36;;;;;;;8.83;6.63;;;;;;;13.43;74.67;100051.13;5036065;28;20277;-78
2021/09/23 06:19:07;;;;;;;9.50;6.67;;;;;;;13.52;74.06;100053.28;5051150;28;20228;-78
2021/09/23 06:21:39;;;;;;;7.90;6.17;;;;;;;13.71;72.84;100039.75;5052726;28;20191;-78
2021/09/23 06:24:09;;;;;;;9.90;6.70;;;;;;;13.81;71.80;100038.13;5050849;28;20284;-78
2021/09/23 06:26:57;;;;;;;9.17;6.13;;;;;;;13.94;70.63;100050.59;5057005;23;20232;-78
2021/09/23 06:38:18;;;;;;;10.37;5.27;;;;;;;14.34;68.21;100038.09;5090586;28;20250;-78
2021/09/23 06:40:48;;;;;;;5.67;4.77;;;;;;;14.40;67.45;100039.06;5091672;28;20260;-78
2021/09/23 06:43:14;;;;;;;6.33;5.20;;;;;;;14.49;67.56;100040.38;5091112;28;20214;-78
2021/09/23 06:45:44;;;;;;;8.10;4.97;;;;;;;14.56;67.29;100024.06;5058011;28;20237;-79
2021/09/23 06:48:13;;;;;;;8.87;5.07;;;;;;;14.70;67.29;100045.13;5088834;28;20233;-88
2021/09/23 06:50:40;;;;;;;7.70;5.30;;;;;;;14.73;67.17;100030.38;5089274;28;20311;-88
2021/09/23 06:53:07;;;;;;;5.97;5.17;;;;;;;14.90;66.60;100048.28;5078442;28;20239;-91
2021/09/23 06:55:33;;;;;;;9.07;5.50;;;;;;;14.98;65.93;100039.81;5057906;28;20238;-92
2021/09/23 06:58:01;;;;;;;9.33;5.30;;;;;;;15.12;65.99;100048.47;5074479;28;20231;-82
2021/09/23 07:00:47;;;;;;;8.10;5.13;;;;;;;15.26;65.16;100035.50;5075362;28;20527;-86
2021/09/23 07:03:40;;;;;;;8.77;4.70;;;;;;;15.49;64.66;100040.81;5060612;28;20255;-93
2021/09/23 07:06:30;;;;;;;8.03;4.70;;;;;;;15.78;63.78;100036.25;5036705;28;20575;-93
2021/09/23 07:08:57;;;;;;;7.70;4.30;;;;;;;16.00;63.24;100034.50;5041189;28;20514;-92
2021/09/23 07:11:26;;;;;;;9.80;5.00;;;;;;;16.11;62.47;100035.44;5044400;28;20229;-91
2021/09/23 07:13:53;;;;;;;7.37;4.53;;;;;;;16.24;62.82;100044.03;5044078;28;20232;-92
2021/09/23 07:16:20;;;;;;;8.00;4.53;;;;;;;16.25;62.26;100032.19;5043480;28;20226;-89
2021/09/23 07:18:46;;;;;;;8.37;4.40;;;;;;;16.35;62.03;100034.22;5044050;28;20322;-89
2021/09/23 07:21:13;;;;;;;7.50;4.60;;;;;;;16.52;61.71;100039.59;5060691;28;20232;-93
2021/09/23 07:23:40;;;;;;;6.23;4.43;;;;;;;16.48;60.88;100033.88;5043789;28;20238;-91
2021/09/23 07:26:07;;;;;;;6.63;3.80;;;;;;;16.67;60.07;100037.97;5077663;28;20636;-93
2021/09/23 07:28:34;;;;;;;6.80;3.97;;;;;;;16.82;59.94;100033.84;5043785;28;20244;-88
2021/09/23 07:31:02;;;;;;;8.40;4.27;;;;;;;16.91;59.57;100032.31;5027415;28;20229;-90
2021/09/23 07:33:29;;;;;;;7.80;4.10;;;;;;;17.03;59.39;100031.13;5060635;28;20350;-83
2021/09/23 07:35:55;;;;;;;6.73;4.17;;;;;;;17.12;58.89;100024.19;5059864;28;20701;-90
2021/09/23 07:38:22;;;;;;;8.13;4.20;;;;;;;17.12;59.68;100023.41;5043081;28;20284;-93
2021/09/23 07:40:49;;;;;;;9.40;4.40;;;;;;;17.19;59.41;100026.72;5043458;28;20225;-80
2021/09/23 07:43:16;;;;;;;6.37;4.07;;;;;;;17.22;59.44;100028.13;5060451;28;20282;-90
2021/09/23 07:45:42;;;;;;;7.70;4.10;;;;;;;17.24;59.95;100021.38;5027112;28;20656;-93
2021/09/23 07:48:09;;;;;;;6.53;3.90;;;;;;;17.29;58.89;100024.13;5059486;28;20229;-88
2021/09/23 07:50:36;;;;;;;5.17;3.40;;;;;;;17.35;58.45;100019.59;5059837;28;20231;-88
2021/09/23 07:53:03;;;;;;;6.57;3.60;;;;;;;17.48;58.08;100025.44;5043138;28;20229;-93
2021/09/23 07:55:30;;;;;;;6.13;3.53;;;;;;;17.50;58.52;100017.03;5042884;28;20229;-79
2021/09/23 07:57:57;;;;;;;8.37;4.33;;;;;;;17.48;57.84;100005.66;5026795;28;20228;-93
2021/09/23 08:00:24;;;;;;;7.47;3.40;;;;;;;17.50;58.02;100003.50;5059183;28;20233;-89
2021/09/23 08:02:52;;;;;;;7.47;3.60;;;;;;;17.65;57.67;100010.97;5043228;28;20229;-93
2021/09/23 08:05:20;;;;;;;8.60;3.80;;;;;;;17.73;57.60;100010.53;5042991;28;20683;-90
2021/09/23 08:07:48;;;;;;;8.40;3.93;;;;;;;17.80;57.33;100000.28;5043213;28;20316;-80
2021/09/23 08:10:16;;;;;;;6.67;3.50;;;;;;;17.91;56.85;99996.59;5042370;28;20225;-86
2021/09/23 08:12:45;;;;;;;8.23;3.90;;;;;;;17.96;57.24;100000.16;5043223;28;20229;-92
2021/09/23 08:15:15;;;;;;;6.43;3.70;;;;;;;18.06;56.39;99991.28;5043151;28;20217;-88
2021/09/23 08:18:01;;;;;;;9.47;3.17;;;;;;;18.22;55.14;99992.22;5059082;28;20221;-91
2021/09/23 08:20:46;;;;;;;5.70;3.13;;;;;;;18.35;53.98;100002.59;5045032;28;20239;-88
2021/09/23 08:23:13;;;;;;;5.70;3.10;;;;;;;18.34;52.25;99996.38;5042788;28;20288;-90
2021/09/23 08:25:41;;;;;;;6.57;3.50;;;;;;;18.38;52.15;99989.34;5043205;28;20224;-94
2021/09/23 08:28:08;;;;;;;6.63;3.47;;;;;;;18.42;52.82;99979.63;5042492;28;20249;-93
2021/09/23 08:30:35;;;;;;;5.63;2.90;;;;;;;18.62;52.81;99989.78;5026525;28;20576;-93
2021/09/23 08:33:02;;;;;;;5.47;3.43;;;;;;;18.71;51.33;99996.34;5026277;28;20335;-94
2021/09/23 08:35:28;;;;;;;6.80;2.90;;;;;;;18.62;51.81;99981.63;5042482;28;20299;-89
2021/09/23 08:37:55;;;;;;;8.67;3.20;;;;;;;18.83;52.52;99983.38;5042382;28;20240;-85
2021/09/23 08:40:22;;;;;;;5.60;3.10;;;;;;;18.84;51.49;99981.50;5025670;28;20225;-85
2021/09/23 08:42:49;;;;;;;6.97;2.70;;;;;;;19.00;50.60;99980.44;5058704;28;20252;-93
2021/09/23 08:45:17;;;;;;;6.30;2.90;;;;;;;19.05;51.06;99977.75;5042354;28;20282;-93
2021/09/23 08:47:45;;;;;;;5.63;3.20;;;;;;;19.23;50.90;99981.88;5042298;28;20237;-89
2021/09/23 08:50:14;;;;;;;6.70;2.97;;;;;;;19.22;51.03;99972.91;5041578;28;20236;-84
2021/09/23 08:52:44;;;;;;;5.23;3.00;;;;;;;19.35;51.00;99971.59;5042708;28;20240;-91
2021/09/23 08:55:27;;;;;;;7.37;3.20;;;;;;;19.54;50.75;99977.38;5025697;28;20336;-92
2021/09/23 08:58:03;;;;;;;6.07;3.30;;;;;;;19.48;48.89;99968.38;5042470;28;20308;-92
2021/09/23 09:00:34;;;;;;;4.97;2.67;;;;;;;19.46;48.71;99972.44;5058687;28;20224;-92
2021/09/23 09:03:07;;;;;;;8.00;3.37;;;;;;;19.41;48.99;99970.50;5042370;28;20229;-87
2021/09/23 09:05:55;;;;;;;7.60;3.00;;;;;;;19.41;48.70;99956.13;5031260;28;20532;-93
2021/09/23 09:08:42;;;;;;;6.90;3.37;;;;;;;19.54;48.85;99951.00;5060848;28;20231;-88
2021/09/23 09:11:14;;;;;;;5.07;2.87;;;;;;;19.60;49.62;99957.25;5026593;28;20233;-85
2021/09/23 09:13:47;;;;;;;7.30;3.00;;;;;;;19.74;48.82;99951.00;5041812;28;20225;-82
2021/09/23 09:16:20;;;;;;;6.80;3.30;;;;;;;19.85;48.74;99949.09;5041204;28;20280;-92
2021/09/23 09:18:51;;;;;;;6.43;3.00;;;;;;;19.86;47.57;99939.88;5041743;28;20245;-89
2021/09/23 09:21:20;;;;;;;4.87;2.97;;;;;;;19.98;47.89;99940.41;5041676;28;20695;-81
2021/09/23 09:23:54;;;;;;;4.70;2.90;;;;;;;20.01;48.81;99942.59;5042057;28;20234;-88
2021/09/23 09:26:33;;;;;;;5.87;2.97;;;;;;;20.12;47.54;99930.59;5057338;28;20234;-87
2021/09/23 09:29:03;;;;;;;7.03;3.10;;;;;;;20.03;48.17;99945.00;5041502;28;20302;-85
2021/09/23 09:31:30;;;;;;;4.90;2.57;;;;;;;20.17;47.39;99937.91;5040840;28;20561;-90
2021/09/23 09:34:00;;;;;;;6.50;2.67;;;;;;;20.24;46.22;99941.19;5024759;28;20241;-85
2021/09/23 09:36:38;;;;;;;4.90;2.50;;;;;;;20.32;46.85;99946.09;5042202;28;20226;-84
2021/09/23 09:39:07;;;;;;;4.63;2.77;;;;;;;20.37;47.13;99932.47;5057811;28;20248;-83
2021/09/23 09:41:37;;;;;;;5.37;2.70;;;;;;;20.54;46.51;99938.41;5041379;28;20231;-89
2021/09/23 09:44:08;;;;;;;5.00;2.90;;;;;;;20.64;46.18;99927.47;5040811;28;20232;-87
2021/09/23 09:46:53;;;;;;;4.10;2.80;;;;;;;20.67;45.32;99920.66;5041604;28;20228;-86
2021/09/23 09:49:23;;;;;;;5.60;2.50;;;;;;;20.43;45.63;99919.66;5024985;28;20227;-81
2021/09/23 09:51:53;;;;;;;6.90;2.70;;;;;;;20.51;46.46;99908.19;5041171;28;20230;-88
2021/09/23 09:54:22;;;;;;;5.37;2.50;;;;;;;20.35;45.70;99910.16;5041039;28;20234;-88
2021/09/23 09:56:59;;;;;;;5.30;2.90;;;;;;;20.54;45.21;99905.72;5040943;28;20223;-89
2021/09/23 09:59:29;;;;;;;5.33;2.83;;;;;;;20.73;44.79;99907.84;5041279;28;20291;-91
2021/09/23 10:01:57;;;;;;;4.57;2.50;;;;;;;20.72;44.82;99898.06;5041132;28;20343;-82
2021/09/23 10:04:29;;;;;;;6.03;2.77;;;;;;;20.83;44.93;99899.63;5057580;28;20225;-81
2021/09/23 10:07:02;;;;;;;5.40;2.50;;;;;;;20.84;45.06;99887.63;5042007;28;20230;-87
2021/09/23 10:09:32;;;;;;;5.20;2.57;;;;;;;20.99;44.53;99906.63;5024832;28;20222;-90
2021/09/23 10:12:00;;;;;;;4.50;2.57;;;;;;;20.95;43.97;99881.84;5024850;28;20232;-91
2021/09/23 10:14:28;;;;;;;6.23;2.70;;;;;;;21.19;44.24;99892.06;5040717;28;20229;-90
2021/09/23 10:16:55;;;;;;;4.70;2.83;;;;;;;21.31;45.07;99900.72;5040818;28;20633;-84
2021/09/23 10:19:22;;;;;;;6.63;2.80;;;;;;;21.14;42.68;99876.56;5040813;28;20223;-88
2021/09/23 10:21:49;;;;;;;4.77;2.67;;;;;;;21.32;42.52;99878.63;5057406;28;20238;-91
2021/09/23 10:24:16;;;;;;;4.43;2.53;;;;;;;21.23;43.25;99868.63;5040119;28;20224;-79
2021/09/23 10:26:45;;;;;;;5.43;3.03;;;;;;;21.48;43.24;99879.31;5040795;28;20561;-87
2021/09/23 10:29:12;;;;;;;5.10;2.70;;;;;;;21.44;43.93;99873.63;5040672;28;20230;-91
2021/09/23 10:31:39;;;;;;;6.47;2.50;;;;;;;21.69;43.60;99879.97;5040967;28;20227;-88
2021/09/23 10:34:12;;;;;;;5.90;2.67;;;;;;;21.49;42.64;99870.88;5040642;28;20532;-85
2021/09/23 10:36:40;;;;;;;6.07;2.63;;;;;;;21.44;43.80;99872.81;5056899;28;20229;-91
2021/09/23 10:39:09;;;;;;;2.67;2.30;;;;;;;21.36;42.45;99857.91;5024626;28;20222;-86
2021/09/23 10:41:39;;;;;;;6.00;2.90;;;;;;;21.59;42.83;99855.53;5040942;28;20231;-90
2021/09/23 10:44:07;;;;;;;5.27;2.80;;;;;;;21.93;43.08;99856.28;5043146;28;20230;-82
2021/09/23 10:46:35;;;;;;;4.57;2.70;;;;;;;22.07;41.95;99842.81;5044527;28;20228;-91
2021/09/23 10:49:05;;;;;;;5.30;2.70;;;;;;;22.32;40.95;99848.78;5045264;28;20236;-90
2021/09/23 10:51:35;;;;;;;4.97;2.63;;;;;;;22.45;42.04;99835.50;5044750;28;20232;-90
2021/09/23 10:54:08;;;;;;;5.27;2.53;;;;;;;22.55;41.06;99828.00;5044509;28;20231;-90
2021/09/23 10:56:36;;;;;;;5.23;2.90;;;;;;;22.70;40.18;99813.38;5044293;28;20238;-89
2021/09/23 10:59:04;;;;;;;4.37;2.87;;;;;;;22.79;40.81;99815.13;5060450;28;20222;-89
2021/09/23 11:01:39;;;;;;;4.83;3.07;;;;;;;22.81;40.78;99823.06;5060648;28;20232;-88
2021/09/23 11:04:29;;;;;;;3.50;2.80;;;;;;;22.91;40.67;99822.09;5047866;28;20309;-89
2021/09/23 11:06:58;;;;;;;6.03;2.53;;;;;;;23.10;40.36;99820.94;5043930;28;20244;-86
2021/09/23 11:09:26;;;;;;;4.37;2.80;;;;;;;23.28;39.11;99817.38;5044472;28;20263;-85
2021/09/23 11:12:03;;;;;;;4.33;2.60;;;;;;;23.42;39.20;99808.41;5044846;28;20233;-89
2021/09/23 11:14:34;;;;;;;4.27;2.90;;;;;;;23.61;38.54;99812.72;5045266;28;20219;-89
2021/09/23 11:17:07;;;;;;;4.53;2.75;;;;;;;23.64;38.01;99806.69;5044093;28;20318;-88
2021/09/23 11:19:34;;;;;;;5.13;3.10;;;;;;;23.45;38.92;99795.00;5044391;28;20226;-90
2021/09/23 11:22:03;;;;;;;5.47;2.83;;;;;;;23.44;38.84;99787.88;5043620;28;20254;-90
2021/09/23 11:24:30;;;;;;;4.47;2.83;;;;;;;23.60;38.81;99791.16;5027879;28;20221;-90
2021/09/23 11:26:58;;;;;;;4.60;2.78;;;;;;;23.74;38.32;99791.19;5044006;28;20311;-89
2021/09/23 11:29:28;;;;;;;3.97;2.78;;;;;;;23.80;37.78;99801.72;5044233;28;20282;-86
2021/09/23 11:31:56;;;;;;;4.27;2.80;;;;;;;23.77;39.17;99796.84;5060151;28;20241;-86
2021/09/23 11:34:42;;;;;;;4.47;2.88;;;;;;;23.93;38.44;99780.97;5059813;28;20304;-85
2021/09/23 11:37:10;;;;;;;3.20;2.53;;;;;;;24.03;38.34;99789.78;5043347;28;20228;-88
2021/09/23 11:40:01;;;;;;;4.72;2.85;;;;;;;24.00;37.60;99764.94;5062636;28;20221;-89
2021/09/23 11:42:31;;;;;;;7.03;2.83;;;;;;;24.10;37.88;99772.94;5043363;28;20217;-88
2021/09/23 11:45:04;;;;;;;4.75;2.90;;;;;;;24.10;38.44;99781.16;5029019;28;20243;-85
2021/09/23 11:47:31;;;;;;;3.95;2.50;;;;;;;24.15;37.63;99770.13;5059851;28;20228;-90
2021/09/23 11:49:58;;;;;;;3.60;2.90;;;;;;;24.24;37.83;99751.88;5059706;28;20510;-90
2021/09/23 11:52:36;;;;;;;4.03;2.75;;;;;;;24.37;37.28;99737.34;5043547;28;20278;-89
2021/09/23 11:55:05;;;;;;;4.32;3.03;;;;;;;24.55;37.75;99730.09;5042899;28;20307;-90
2021/09/23 11:57:32;;;;;;;5.30;2.97;;;;;;;24.67;36.59;99724.91;5026896;28;20233;-90
2021/09/23 12:00:00;;;;;;;3.92;2.92;;;;;;;24.82;35.28;99712.75;5042588;28;20228;-85
2021/09/23 12:02:32;;;;;;;4.47;2.85;;;;;;;24.96;36.54;99705.31;5059958;28;20249;-87
2021/09/23 12:05:00;;;;;;;5.05;3.15;;;;;;;25.23;36.91;99715.31;5027504;28;20229;-87